createdAt,value
2019-04-27T00:02:07.153Z,2.73
2019-04-27T00:04:55.887Z,2.40
2019-04-27T00:07:59.334Z,3.47
2019-04-27T00:10:34.854Z,2.77
2019-04-27T00:13:05.842Z,3.30
2019-04-27T00:16:05.625Z,3.20
2019-04-27T00:18:59.789Z,3.60
2019-04-27T00:21:37.644Z,3.70
2019-04-27T00:24:06.685Z,3.03
2019-04-27T00:26:35.762Z,3.80
2019-04-27T00:29:04.903Z,3.40
2019-04-27T00:31:33.851Z,3.30
2019-04-27T00:34:03.592Z,3.47
2019-04-27T00:36:39.163Z,3.70
2019-04-27T00:39:18.438Z,3.53
2019-04-27T00:41:47.354Z,3.50
2019-04-27T00:44:16.302Z,3.20
2019-04-27T00:46:45.304Z,2.80
2019-04-27T00:49:14.170Z,4.53
2019-04-27T00:51:43.467Z,4.60
2019-04-27T00:54:13.623Z,3.50
2019-04-27T00:57:07.649Z,3.70
2019-04-27T00:59:55.712Z,4.37
2019-04-27T01:02:39.945Z,4.17
2019-04-27T01:05:23.036Z,4.80
2019-04-27T01:07:53.695Z,4.30
2019-04-27T01:10:24.217Z,3.53
2019-04-27T01:12:53.360Z,4.10
2019-04-27T01:15:23.804Z,4.97
2019-04-27T01:17:52.798Z,4.20
2019-04-27T01:20:21.839Z,5.00
2019-04-27T01:22:50.847Z,3.70
2019-04-27T01:25:21.984Z,3.27
2019-04-27T01:28:09.766Z,4.50
2019-04-27T01:30:44.702Z,3.80
2019-04-27T01:33:13.605Z,3.87
2019-04-27T01:35:42.613Z,3.90
2019-04-27T01:38:11.927Z,4.00
2019-04-27T01:40:40.894Z,4.07
2019-04-27T01:43:30.268Z,3.83
2019-04-27T01:46:01.026Z,5.27
2019-04-27T01:48:30.621Z,4.40
2019-04-27T01:51:00.028Z,3.80
2019-04-27T01:53:30.449Z,4.47
2019-04-27T01:55:59.456Z,4.50
2019-04-27T01:58:29.236Z,4.47
2019-04-27T02:01:29.509Z,4.10
2019-04-27T02:04:19.585Z,4.43
2019-04-27T02:06:50.430Z,4.13
2019-04-27T02:09:20.843Z,4.43
2019-04-27T02:11:50.025Z,4.50
2019-04-27T02:14:19.613Z,3.93
2019-04-27T02:16:49.295Z,4.30
2019-04-27T02:19:19.312Z,3.97
2019-04-27T02:21:49.413Z,4.30
2019-04-27T02:24:19.476Z,4.10
2019-04-27T02:26:49.744Z,3.53
2019-04-27T02:29:31.817Z,3.80
2019-04-27T02:32:29.168Z,4.47
2019-04-27T02:35:03.432Z,4.10
2019-04-27T02:37:32.521Z,4.27
2019-04-27T02:40:01.397Z,4.20
2019-04-27T02:42:39.277Z,3.97
2019-04-27T02:45:09.709Z,5.20
2019-04-27T02:47:40.782Z,4.40
2019-04-27T02:50:10.717Z,4.40
2019-04-27T02:52:44.930Z,4.73
2019-04-27T02:55:13.921Z,4.80
2019-04-27T02:57:42.864Z,4.30
2019-04-27T03:00:13.452Z,5.40
2019-04-27T03:02:46.532Z,5.77
2019-04-27T03:05:25.124Z,4.97
2019-04-27T03:07:54.325Z,5.37
2019-04-27T03:10:25.663Z,6.27
2019-04-27T03:13:02.007Z,5.77
2019-04-27T03:15:52.738Z,5.00
2019-04-27T03:18:33.473Z,5.23
2019-04-27T03:21:13.130Z,6.30
2019-04-27T03:23:42.831Z,5.80
2019-04-27T03:26:33.930Z,4.97
2019-04-27T03:29:03.036Z,5.57
2019-04-27T03:31:33.032Z,4.80
2019-04-27T03:34:05.168Z,5.20
2019-04-27T03:36:33.440Z,5.50
2019-04-27T03:39:02.435Z,5.07
2019-04-27T03:41:31.664Z,4.70
2019-04-27T03:44:00.783Z,4.93
2019-04-27T03:46:30.317Z,4.77
2019-04-27T03:49:00.106Z,4.77
2019-04-27T03:51:45.651Z,4.87
2019-04-27T03:54:23.078Z,5.27
2019-04-27T03:57:02.364Z,4.53
2019-04-27T03:59:52.294Z,4.87
2019-04-27T04:02:21.424Z,4.10
2019-04-27T04:04:50.735Z,5.20
2019-04-27T04:07:20.027Z,5.40
2019-04-27T04:09:50.343Z,4.80
2019-04-27T04:12:41.497Z,5.93
2019-04-27T04:15:13.759Z,4.90
2019-04-27T04:17:42.747Z,5.57
2019-04-27T04:20:12.107Z,4.53
2019-04-27T04:22:41.128Z,4.70
2019-04-27T04:25:10.853Z,5.90
2019-04-27T04:27:42.636Z,4.93
2019-04-27T04:30:12.344Z,4.80
2019-04-27T04:32:41.919Z,4.60
2019-04-27T04:35:21.747Z,5.27
2019-04-27T04:37:52.997Z,5.07
2019-04-27T04:40:25.878Z,5.40
2019-04-27T04:43:03.251Z,5.07
2019-04-27T04:45:52.158Z,5.27
2019-04-27T04:48:21.283Z,5.10
2019-04-27T04:50:50.353Z,5.07
2019-04-27T04:53:20.643Z,6.10
2019-04-27T04:55:49.784Z,5.70
2019-04-27T04:58:21.007Z,5.30
2019-04-27T05:00:50.195Z,6.60
2019-04-27T05:03:21.907Z,7.00
2019-04-27T05:05:50.261Z,6.10
2019-04-27T05:08:19.313Z,6.07
2019-04-27T05:10:49.773Z,6.87
2019-04-27T05:13:19.449Z,6.10
2019-04-27T05:15:48.853Z,6.63
2019-04-27T05:18:19.153Z,6.50
2019-04-27T05:21:03.337Z,5.90
2019-04-27T05:23:32.199Z,6.33
2019-04-27T05:26:01.385Z,6.20
2019-04-27T05:28:30.426Z,6.00
2019-04-27T05:31:00.600Z,6.07
2019-04-27T05:33:29.687Z,6.00
2019-04-27T05:35:59.102Z,5.37
2019-04-27T05:38:29.472Z,5.90
2019-04-27T05:40:58.796Z,6.00
2019-04-27T05:43:34.118Z,6.43
2019-04-27T05:46:46.267Z,6.03
2019-04-27T05:49:20.643Z,5.77
2019-04-27T05:51:50.179Z,5.00
2019-04-27T05:54:20.010Z,5.37
2019-04-27T05:56:49.290Z,5.70
2019-04-27T05:59:19.795Z,5.60
2019-04-27T06:01:49.441Z,6.50
2019-04-27T06:04:19.249Z,4.83
2019-04-27T06:06:49.902Z,5.93
2019-04-27T06:09:19.542Z,5.17
2019-04-27T06:11:50.656Z,4.77
2019-04-27T06:14:19.365Z,4.30
2019-04-27T06:16:51.026Z,4.30
2019-04-27T06:19:19.428Z,4.67
2019-04-27T06:21:49.967Z,5.27
2019-04-27T06:24:19.063Z,5.10
2019-04-27T06:26:49.650Z,3.80
2019-04-27T06:29:19.534Z,3.70
2019-04-27T06:31:49.663Z,4.47
2019-04-27T06:34:19.360Z,4.00
2019-04-27T06:36:48.773Z,3.90
2019-04-27T06:39:18.911Z,3.90
2019-04-27T06:41:49.068Z,4.40
2019-04-27T06:44:19.619Z,4.00
2019-04-27T06:46:49.047Z,4.00
2019-04-27T06:49:19.467Z,4.20
2019-04-27T06:51:49.752Z,3.57
2019-04-27T06:54:19.762Z,2.70
2019-04-27T06:56:50.522Z,2.70
2019-04-27T06:59:19.376Z,3.33
2019-04-27T07:01:48.838Z,3.10
2019-04-27T07:04:19.586Z,3.97
2019-04-27T07:06:54.129Z,3.97
2019-04-27T07:09:20.073Z,3.73
2019-04-27T07:11:49.478Z,4.70
2019-04-27T07:14:19.662Z,4.30
2019-04-27T07:16:50.603Z,4.63
2019-04-27T07:19:19.598Z,3.80
2019-04-27T07:21:49.803Z,3.20
2019-04-27T07:24:19.653Z,3.80
2019-04-27T07:26:48.910Z,3.67
2019-04-27T07:29:19.424Z,3.53
2019-04-27T07:31:49.591Z,4.13
2019-04-27T07:34:19.090Z,3.93
2019-04-27T07:36:49.084Z,3.50
2019-04-27T07:39:19.263Z,5.33
2019-04-27T07:41:49.002Z,4.40
2019-04-27T07:44:33.406Z,3.93
2019-04-27T07:47:22.585Z,3.70
2019-04-27T07:49:51.950Z,3.77
2019-04-27T07:52:20.950Z,4.07
2019-04-27T07:54:49.981Z,3.50
2019-04-27T07:57:19.747Z,4.17
2019-04-27T07:59:50.084Z,3.93
2019-04-27T08:02:19.592Z,3.60
2019-04-27T08:04:50.289Z,3.50
2019-04-27T08:07:19.717Z,4.77
2019-04-27T08:09:49.593Z,5.00
2019-04-27T08:12:20.872Z,4.27
2019-04-27T08:14:49.656Z,5.23
2019-04-27T08:17:19.099Z,4.70
2019-04-27T08:19:49.563Z,3.77
2019-04-27T08:22:19.556Z,5.37
2019-04-27T08:24:49.620Z,4.93
2019-04-27T08:27:36.454Z,4.60
2019-04-27T08:30:32.086Z,5.10
2019-04-27T08:33:01.798Z,3.77
2019-04-27T08:35:32.719Z,5.00
2019-04-27T08:38:01.488Z,5.00
2019-04-27T08:40:30.373Z,4.80
2019-04-27T08:42:59.345Z,5.00
2019-04-27T08:45:29.263Z,5.50
2019-04-27T08:47:59.492Z,4.63
2019-04-27T08:50:29.117Z,4.40
2019-04-27T08:52:58.032Z,5.40
2019-04-27T08:55:27.037Z,5.33
2019-04-27T08:57:56.031Z,5.23
2019-04-27T09:00:25.182Z,4.63
2019-04-27T09:02:54.059Z,5.90
2019-04-27T09:05:26.331Z,4.33
2019-04-27T09:08:21.739Z,5.10
2019-04-27T09:11:08.873Z,4.37
2019-04-27T09:13:45.306Z,6.10
2019-04-27T09:16:24.398Z,4.07
2019-04-27T09:18:56.857Z,5.13
2019-04-27T09:21:29.263Z,4.70
2019-04-27T09:23:59.308Z,5.40
2019-04-27T09:26:28.910Z,4.93
2019-04-27T09:28:59.508Z,4.10
2019-04-27T09:31:28.821Z,6.57
2019-04-27T09:33:57.739Z,5.17
2019-04-27T09:36:26.718Z,5.70
2019-04-27T09:38:56.483Z,5.60
2019-04-27T09:41:26.239Z,5.10
2019-04-27T09:43:55.853Z,4.20
2019-04-27T09:46:26.008Z,4.27
2019-04-27T09:48:56.538Z,4.30
2019-04-27T09:51:25.737Z,4.70
2019-04-27T09:53:56.331Z,4.70
2019-04-27T09:56:26.110Z,4.93
2019-04-27T09:58:57.096Z,4.93
2019-04-27T10:01:26.465Z,4.63
2019-04-27T10:03:56.783Z,3.90
2019-04-27T10:06:29.646Z,4.10
2019-04-27T10:08:57.717Z,4.23
2019-04-27T10:11:27.137Z,4.63
2019-04-27T10:13:55.990Z,4.20
2019-04-27T10:16:25.707Z,4.20
2019-04-27T10:18:54.783Z,4.30
2019-04-27T10:21:23.733Z,3.90
2019-04-27T10:23:52.749Z,4.10
2019-04-27T10:26:21.842Z,3.47
2019-04-27T10:28:50.918Z,3.50
2019-04-27T10:31:19.857Z,3.80
2019-04-27T10:33:48.861Z,3.90
2019-04-27T10:36:37.075Z,3.03
2019-04-27T10:39:08.252Z,3.67
2019-04-27T10:41:37.668Z,3.03
2019-04-27T10:44:07.646Z,3.87
2019-04-27T10:46:36.894Z,3.90
2019-04-27T10:49:07.418Z,3.60
2019-04-27T10:51:36.530Z,4.50
2019-04-27T10:54:06.366Z,4.33
2019-04-27T10:56:55.872Z,3.90
2019-04-27T10:59:24.875Z,5.83
2019-04-27T11:01:53.953Z,6.70
2019-04-27T11:04:48.322Z,4.83
2019-04-27T11:07:19.929Z,4.53
2019-04-27T11:09:49.682Z,5.10
2019-04-27T11:12:18.892Z,4.10
2019-04-27T11:14:48.116Z,4.00
2019-04-27T11:17:17.077Z,3.40
2019-04-27T11:19:46.594Z,4.20
2019-04-27T11:22:16.060Z,4.73
2019-04-27T11:24:45.859Z,5.03
2019-04-27T11:27:15.858Z,4.03
2019-04-27T11:29:46.211Z,2.80
2019-04-27T11:32:16.974Z,2.50
2019-04-27T11:35:05.665Z,2.90
2019-04-27T11:37:37.211Z,2.50
2019-04-27T11:40:07.512Z,2.43
2019-04-27T11:42:36.707Z,2.10
2019-04-27T11:45:06.720Z,2.20
2019-04-27T11:47:36.625Z,2.60
2019-04-27T11:50:08.175Z,2.53
2019-04-27T11:52:38.046Z,2.60
2019-04-27T11:55:09.237Z,3.67
2019-04-27T11:57:38.392Z,3.33
2019-04-27T12:00:11.940Z,4.43
2019-04-27T12:02:43.620Z,2.97
2019-04-27T12:05:13.262Z,4.00
2019-04-27T12:07:42.326Z,2.57
2019-04-27T12:10:13.416Z,3.43
2019-04-27T12:12:46.438Z,2.70
2019-04-27T12:15:16.266Z,2.27
2019-04-27T12:17:46.202Z,1.90
2019-04-27T12:20:17.917Z,2.60
2019-04-27T12:22:47.171Z,1.97
2019-04-27T12:25:16.565Z,2.37
2019-04-27T12:28:10.837Z,2.50
2019-04-27T12:31:17.117Z,2.93
2019-04-27T12:33:46.150Z,2.63
2019-04-27T12:36:15.764Z,2.40
2019-04-27T12:38:46.591Z,2.03
2019-04-27T12:41:15.843Z,1.50
2019-04-27T12:43:45.937Z,2.40
2019-04-27T12:46:16.076Z,2.50
2019-04-27T12:48:46.044Z,2.60
2019-04-27T12:51:15.240Z,2.00
2019-04-27T12:53:55.849Z,1.80
2019-04-27T12:56:42.088Z,2.60
2019-04-27T12:59:36.655Z,2.70
2019-04-27T13:02:06.345Z,2.40
2019-04-27T13:04:36.470Z,2.90
2019-04-27T13:07:06.152Z,2.93
2019-04-27T13:09:36.023Z,2.60
2019-04-27T13:12:05.359Z,2.63
2019-04-27T13:14:34.364Z,3.60
2019-04-27T13:17:03.305Z,3.57
2019-04-27T13:19:32.187Z,3.27
2019-04-27T13:22:01.100Z,2.60
2019-04-27T13:24:30.182Z,2.57
2019-04-27T13:26:59.169Z,3.70
2019-04-27T13:29:28.193Z,3.13
2019-04-27T13:31:57.719Z,3.30
2019-04-27T13:34:26.938Z,3.07
2019-04-27T13:36:56.937Z,3.00
2019-04-27T13:39:25.903Z,2.70
2019-04-27T13:41:56.328Z,2.70
2019-04-27T13:44:26.304Z,3.40
2019-04-27T13:47:27.281Z,3.53
2019-04-27T13:50:15.714Z,3.70
2019-04-27T13:52:44.601Z,3.97
2019-04-27T13:55:13.629Z,3.83
2019-04-27T13:57:50.071Z,3.00
2019-04-27T14:00:14.181Z,3.53
2019-04-27T14:02:44.123Z,3.73
2019-04-27T14:05:13.447Z,3.80
2019-04-27T14:07:42.481Z,3.17
2019-04-27T14:10:11.781Z,3.07
2019-04-27T14:12:40.704Z,4.03
2019-04-27T14:15:09.814Z,3.70
2019-04-27T14:17:39.185Z,4.30
2019-04-27T14:20:09.710Z,3.53
2019-04-27T14:22:38.741Z,3.27
2019-04-27T14:25:08.667Z,4.27
2019-04-27T14:27:41.167Z,4.60
2019-04-27T14:30:12.354Z,3.97
2019-04-27T14:32:42.389Z,4.90
2019-04-27T14:35:11.965Z,3.03
2019-04-27T14:37:44.128Z,2.63
2019-04-27T14:40:13.328Z,3.13
2019-04-27T14:42:42.258Z,2.63
2019-04-27T14:45:11.655Z,2.97
2019-04-27T14:47:40.705Z,3.23
2019-04-27T14:50:09.978Z,3.37
2019-04-27T14:52:40.860Z,3.67
2019-04-27T14:55:09.960Z,3.23
2019-04-27T14:57:39.432Z,4.00
2019-04-27T15:00:11.211Z,3.30
2019-04-27T15:02:40.252Z,3.60
2019-04-27T15:05:09.352Z,4.00
2019-04-27T15:07:38.393Z,3.00
2019-04-27T15:10:07.825Z,2.90
2019-04-27T15:12:36.758Z,3.63
2019-04-27T15:15:06.786Z,3.37
2019-04-27T15:17:35.742Z,3.43
2019-04-27T15:20:09.219Z,3.77
2019-04-27T15:22:40.188Z,3.40
2019-04-27T15:25:13.640Z,3.37
2019-04-27T15:27:45.838Z,3.30
2019-04-27T15:30:22.277Z,2.87
2019-04-27T15:33:15.976Z,3.07
2019-04-27T15:35:48.297Z,3.23
2019-04-27T15:38:21.269Z,3.90
2019-04-27T15:41:09.477Z,3.50
2019-04-27T15:43:39.929Z,3.73
2019-04-27T15:46:09.034Z,3.30
2019-04-27T15:48:38.506Z,3.10
2019-04-27T15:51:14.852Z,3.60
2019-04-27T15:53:41.203Z,4.23
2019-04-27T15:56:09.294Z,3.58
2019-04-27T15:58:38.355Z,3.50
2019-04-27T16:01:11.606Z,2.87
2019-04-27T16:03:39.082Z,2.43
2019-04-27T16:06:11.803Z,6.63
2019-04-27T16:08:45.092Z,41.70
2019-04-27T16:11:16.395Z,108.63
2019-04-27T16:13:40.673Z,44.80
2019-04-27T16:16:09.630Z,7.13
2019-04-27T16:18:38.923Z,14.40
2019-04-27T16:21:10.576Z,9.43
2019-04-27T16:23:42.895Z,10.77
2019-04-27T16:26:11.205Z,7.43
2019-04-27T16:28:42.995Z,8.60
2019-04-27T16:31:11.231Z,6.73
2019-04-27T16:33:40.435Z,5.50
2019-04-27T16:36:09.744Z,4.97
2019-04-27T16:41:20.321Z,6.17
2019-04-27T16:43:49.221Z,4.67
2019-04-27T16:46:19.107Z,4.40
2019-04-27T16:48:49.264Z,7.23
2019-04-27T16:51:18.478Z,3.50
2019-04-27T16:53:47.614Z,2.87
2019-04-27T16:56:20.504Z,3.83
2019-04-27T16:58:51.026Z,3.40
2019-04-27T17:01:30.347Z,3.40
2019-04-27T17:03:59.581Z,3.60
2019-04-27T17:06:29.563Z,2.93
2019-04-27T17:09:05.696Z,4.27
2019-04-27T17:11:29.885Z,3.43
2019-04-27T17:14:20.468Z,3.07
2019-04-27T17:16:58.218Z,2.10
2019-04-27T17:19:35.751Z,3.67
2019-04-27T17:22:03.654Z,3.10
2019-04-27T17:24:42.232Z,2.80
2019-04-27T17:27:11.011Z,3.50
2019-04-27T17:29:41.080Z,2.17
2019-04-27T17:32:19.987Z,2.67
2019-04-27T17:34:50.771Z,3.00
2019-04-27T17:37:19.769Z,2.90
2019-04-27T17:39:48.941Z,2.97
2019-04-27T17:42:18.727Z,2.40
2019-04-27T17:44:49.002Z,2.30
2019-04-27T17:47:23.456Z,2.10
2019-04-27T17:49:48.969Z,3.10
2019-04-27T17:52:18.291Z,2.80
2019-04-27T17:54:47.810Z,3.30
2019-04-27T17:57:17.955Z,2.27
2019-04-27T17:59:51.311Z,3.10
2019-04-27T18:02:18.118Z,2.23
2019-04-27T18:04:48.407Z,3.30
2019-04-27T18:07:19.067Z,2.63
2019-04-27T18:09:48.388Z,2.63
2019-04-27T18:12:18.320Z,2.30
2019-04-27T18:14:47.996Z,2.87
2019-04-27T18:17:19.692Z,2.83
2019-04-27T18:19:51.878Z,3.13
2019-04-27T18:22:20.817Z,3.20
2019-04-27T18:25:09.777Z,3.73
2019-04-27T18:27:44.218Z,2.80
2019-04-27T18:30:40.441Z,2.90
2019-04-27T18:33:07.960Z,3.20
2019-04-27T18:35:38.722Z,3.07
2019-04-27T18:38:07.946Z,2.73
2019-04-27T18:40:38.449Z,2.60
2019-04-27T18:43:12.325Z,2.70
2019-04-27T18:45:44.763Z,3.07
2019-04-27T18:48:14.859Z,2.07
2019-04-27T18:51:03.066Z,2.63
2019-04-27T18:53:32.042Z,2.73
2019-04-27T18:56:05.359Z,2.43
2019-04-27T18:58:31.585Z,2.43
2019-04-27T19:01:00.674Z,2.40
2019-04-27T19:03:31.571Z,2.47
2019-04-27T19:06:00.797Z,2.67
2019-04-27T19:08:30.051Z,3.07
2019-04-27T19:11:00.433Z,2.57
2019-04-27T19:13:29.665Z,3.63
2019-04-27T19:15:59.910Z,3.33
2019-04-27T19:18:29.172Z,3.60
2019-04-27T19:20:58.493Z,2.67
2019-04-27T19:23:28.180Z,3.10
2019-04-27T19:26:08.847Z,2.40
2019-04-27T19:28:55.682Z,2.07
2019-04-27T19:31:29.114Z,2.40
2019-04-27T19:33:58.248Z,2.30
2019-04-27T19:36:27.951Z,2.57
2019-04-27T19:38:58.343Z,2.60
2019-04-27T19:41:28.859Z,2.50
2019-04-27T19:43:59.765Z,2.40
2019-04-27T19:46:30.536Z,2.43
2019-04-27T19:48:59.761Z,2.97
2019-04-27T19:51:28.586Z,2.80
2019-04-27T19:53:58.160Z,2.10
2019-04-27T19:56:28.387Z,2.30
2019-04-27T19:58:59.525Z,2.50
2019-04-27T20:01:34.821Z,2.23
2019-04-27T20:04:13.694Z,1.93
2019-04-27T20:06:43.056Z,2.60
2019-04-27T20:09:23.797Z,2.10
2019-04-27T20:11:52.781Z,1.83
2019-04-27T20:14:21.749Z,1.87
2019-04-27T20:16:51.913Z,2.37
2019-04-27T20:19:21.580Z,2.17
2019-04-27T20:21:50.898Z,2.20
2019-04-27T20:24:19.881Z,2.90
2019-04-27T20:26:48.803Z,2.43
2019-04-27T20:29:17.832Z,2.27
2019-04-27T20:31:46.801Z,1.80
2019-04-27T20:34:16.646Z,1.73
2019-04-27T20:36:45.546Z,1.90
2019-04-27T20:39:14.572Z,1.40
2019-04-27T20:41:43.661Z,1.80
2019-04-27T20:44:12.820Z,2.03
2019-04-27T20:46:42.052Z,1.97
2019-04-27T20:49:29.306Z,2.00
2019-04-27T20:52:11.836Z,1.73
2019-04-27T20:54:41.539Z,2.00
2019-04-27T20:57:11.581Z,2.07
2019-04-27T20:59:40.648Z,1.83
2019-04-27T21:02:27.767Z,2.13
2019-04-27T21:05:18.194Z,1.67
2019-04-27T21:07:51.046Z,2.27
2019-04-27T21:10:21.422Z,2.27
2019-04-27T21:12:51.870Z,1.47
2019-04-27T21:15:21.421Z,1.83
2019-04-27T21:17:51.217Z,2.07
2019-04-27T21:20:21.927Z,1.77
2019-04-27T21:22:53.205Z,1.67
2019-04-27T21:25:21.675Z,2.37
2019-04-27T21:27:51.331Z,1.90
2019-04-27T21:30:21.322Z,2.10
2019-04-27T21:32:50.900Z,2.80
2019-04-27T21:35:21.317Z,3.00
2019-04-27T21:37:51.251Z,3.07
2019-04-27T21:40:21.835Z,2.70
2019-04-27T21:42:51.332Z,2.77
2019-04-27T21:45:21.713Z,2.90
2019-04-27T21:47:51.911Z,2.20
2019-04-27T21:50:23.279Z,1.87
2019-04-27T21:53:11.004Z,2.60
2019-04-27T21:55:40.052Z,1.83
2019-04-27T21:58:11.555Z,2.10
2019-04-27T22:00:58.632Z,1.83
2019-04-27T22:03:31.671Z,1.77
2019-04-27T22:06:01.794Z,1.80
2019-04-27T22:08:31.841Z,1.80
2019-04-27T22:11:01.541Z,1.90
2019-04-27T22:13:31.282Z,2.57
2019-04-27T22:16:00.360Z,1.97
2019-04-27T22:18:31.304Z,2.13
2019-04-27T22:21:01.330Z,1.77
2019-04-27T22:23:36.552Z,1.40
2019-04-27T22:26:05.457Z,2.03
2019-04-27T22:28:46.317Z,2.87
2019-04-27T22:31:05.110Z,1.93
2019-04-27T22:33:34.017Z,2.10
2019-04-27T22:36:02.945Z,1.47
2019-04-27T22:38:32.680Z,1.73
2019-04-27T22:41:15.998Z,1.33
2019-04-27T22:44:11.586Z,1.50
2019-04-27T22:46:42.219Z,1.30
2019-04-27T22:49:11.310Z,1.10
2019-04-27T22:51:42.743Z,1.67
2019-04-27T22:54:11.607Z,1.20
2019-04-27T22:56:42.603Z,1.40
2019-04-27T22:59:25.171Z,1.20
2019-04-27T23:02:08.552Z,1.20
2019-04-27T23:04:41.365Z,1.33
2019-04-27T23:07:11.063Z,1.00
2019-04-27T23:09:40.755Z,1.43
2019-04-27T23:12:12.001Z,1.00
2019-04-27T23:14:41.533Z,1.13
2019-04-27T23:17:28.717Z,1.30
2019-04-27T23:19:57.652Z,1.37
2019-04-27T23:22:26.553Z,1.13
2019-04-27T23:24:55.757Z,1.37
2019-04-27T23:27:24.698Z,1.30
2019-04-27T23:29:53.525Z,1.60
2019-04-27T23:32:31.651Z,1.20
2019-04-27T23:35:00.310Z,1.23
2019-04-27T23:37:29.154Z,1.30
2019-04-27T23:39:58.113Z,1.60
2019-04-27T23:42:27.138Z,1.80
2019-04-27T23:44:55.998Z,1.90
2019-04-27T23:47:24.916Z,1.67
2019-04-27T23:49:53.737Z,1.60
2019-04-27T23:52:40.345Z,2.10
2019-04-27T23:55:10.866Z,2.47
2019-04-27T23:57:40.138Z,2.70
